createdAt,value
2023-11-01T00:11:58.309Z,99830.75
2023-11-01T00:27:02.093Z,99817.25
2023-11-01T00:42:06.096Z,99826.66
2023-11-01T00:57:09.844Z,99827.59
2023-11-01T01:12:12.960Z,99809.78
2023-11-01T01:27:16.189Z,99802.44
2023-11-01T01:42:19.659Z,99763.59
2023-11-01T01:57:24.492Z,99757.00
2023-11-01T02:12:27.579Z,99713.50
2023-11-01T02:27:30.994Z,99711.97
2023-11-01T02:42:34.488Z,99721.31
2023-11-01T02:57:37.923Z,99696.34
2023-11-01T03:12:41.791Z,99707.06
2023-11-01T03:27:45.364Z,99692.81
2023-11-01T03:42:50.498Z,99683.75
2023-11-01T03:57:53.849Z,99650.75
2023-11-01T04:12:57.262Z,99664.91
2023-11-01T04:28:01.366Z,99632.13
2023-11-01T04:43:04.779Z,99631.47
2023-11-01T04:58:08.059Z,99621.13
2023-11-01T05:13:13.715Z,99618.81
2023-11-01T05:43:40.944Z,99615.47
2023-11-01T05:58:46.113Z,99616.66
2023-11-01T06:13:52.341Z,99554.63
2023-11-01T06:29:04.223Z,99584.44
2023-11-01T06:44:09.734Z,99594.94
2023-11-01T06:59:13.368Z,99613.03
2023-11-01T07:14:17.196Z,99623.81
2023-11-01T07:29:21.340Z,99603.13
2023-11-01T07:44:24.781Z,99614.25
2023-11-01T07:59:27.875Z,99598.88
2023-11-01T08:14:31.065Z,99582.91
2023-11-01T08:29:34.584Z,99581.66
2023-11-01T08:44:37.753Z,99590.59
2023-11-01T08:59:40.954Z,99587.13
2023-11-01T09:14:44.468Z,99605.47
2023-11-01T09:29:47.590Z,99582.81
2023-11-01T09:44:55.212Z,99587.94
2023-11-01T09:59:58.519Z,99581.34
2023-11-01T10:15:03.024Z,99579.63
2023-11-01T10:30:08.441Z,99559.91
2023-11-01T10:45:11.974Z,99537.34
2023-11-01T11:00:20.867Z,99516.31
2023-11-01T11:15:55.720Z,99478.81
2023-11-01T11:31:00.265Z,99466.72
2023-11-01T11:46:29.037Z,99440.63
2023-11-01T12:01:32.753Z,99417.38
2023-11-01T12:16:38.736Z,99390.53
2023-11-01T12:31:46.094Z,99363.09
2023-11-01T12:46:49.410Z,99334.72
2023-11-01T13:01:52.920Z,99334.84
2023-11-01T13:16:57.098Z,99301.75
2023-11-01T13:32:02.268Z,99290.06
2023-11-01T13:47:05.614Z,99272.13
2023-11-01T14:02:09.039Z,99253.03
2023-11-01T14:17:12.460Z,99217.84
2023-11-01T14:32:15.629Z,99223.84
2023-11-01T14:47:19.043Z,99200.28
2023-11-01T15:02:22.249Z,99183.53
2023-11-01T15:17:25.576Z,99182.31
2023-11-01T15:32:30.781Z,99167.34
2023-11-01T15:47:42.040Z,99166.03
2023-11-01T16:02:45.369Z,99168.38
2023-11-01T16:17:49.255Z,99155.34
2023-11-01T16:32:57.204Z,99155.34
2023-11-01T16:48:03.921Z,99135.47
2023-11-01T17:03:07.794Z,99146.75
2023-11-01T17:18:11.984Z,99140.28
2023-11-01T17:33:15.425Z,99155.91
2023-11-01T17:48:18.846Z,99136.78
2023-11-01T18:03:22.429Z,99135.13
2023-11-01T18:18:41.813Z,99148.22
2023-11-01T18:33:57.085Z,99150.19
2023-11-01T18:49:01.236Z,99140.28
2023-11-01T19:04:07.551Z,99108.00
2023-11-01T19:19:10.811Z,99119.47
2023-11-01T19:34:14.258Z,99122.97
2023-11-01T19:49:19.070Z,99079.63
2023-11-01T20:04:22.397Z,99130.66
2023-11-01T20:19:28.705Z,99135.06
2023-11-01T20:34:31.919Z,99133.44
2023-11-01T20:49:36.422Z,99126.78
2023-11-01T21:04:41.526Z,99104.91
2023-11-01T21:19:48.179Z,99078.25
2023-11-01T21:34:51.393Z,99050.13
2023-11-01T21:49:55.046Z,99031.16
2023-11-01T22:04:58.420Z,98995.81
2023-11-01T22:20:01.629Z,98988.06
2023-11-01T22:35:08.378Z,98959.06
2023-11-01T22:50:11.998Z,98948.63
2023-11-01T23:05:15.406Z,98923.22
2023-11-01T23:20:25.313Z,98880.47
2023-11-01T23:35:30.408Z,98826.19
2023-11-01T23:50:34.924Z,98834.22
